sensor_id;sensor_type;location;lat;lon;timestamp;P1;durP1;ratioP1;P2;durP2;ratioP2
41952;SDS011;63613;28.200;112.870;2023-08-01T00:01:37;5.72;;;5.32;;
41952;SDS011;63613;28.200;112.870;2023-08-01T00:04:04;6.43;;;5.93;;
41952;SDS011;63613;28.200;112.870;2023-08-01T00:06:30;6.95;;;6.35;;
41952;SDS011;63613;28.200;112.870;2023-08-01T00:08:57;7.43;;;6.78;;
41952;SDS011;63613;28.200;112.870;2023-08-01T00:11:24;7.38;;;6.68;;
41952;SDS011;63613;28.200;112.870;2023-08-01T00:13:51;9.18;;;7.75;;
41952;SDS011;63613;28.200;112.870;2023-08-01T00:16:18;7.45;;;6.78;;
41952;SDS011;63613;28.200;112.870;2023-08-01T00:18:44;7.45;;;6.85;;
41952;SDS011;63613;28.200;112.870;2023-08-01T00:21:11;6.85;;;6.25;;
41952;SDS011;63613;28.200;112.870;2023-08-01T00:23:38;7.50;;;6.80;;
41952;SDS011;63613;28.200;112.870;2023-08-01T00:26:05;7.70;;;7.00;;
41952;SDS011;63613;28.200;112.870;2023-08-01T00:28:32;7.65;;;6.95;;
41952;SDS011;63613;28.200;112.870;2023-08-01T00:31:19;7.22;;;6.63;;
41952;SDS011;63613;28.200;112.870;2023-08-01T00:33:46;7.78;;;7.13;;
41952;SDS011;63613;28.200;112.870;2023-08-01T00:36:12;7.03;;;6.43;;
41952;SDS011;63613;28.200;112.870;2023-08-01T00:38:59;7.40;;;6.80;;
41952;SDS011;63613;28.200;112.870;2023-08-01T00:41:26;7.90;;;7.20;;
41952;SDS011;63613;28.200;112.870;2023-08-01T00:43:53;7.68;;;6.97;;
41952;SDS011;63613;28.200;112.870;2023-08-01T00:46:39;7.15;;;6.55;;
41952;SDS011;63613;28.200;112.870;2023-08-01T00:49:06;7.55;;;6.85;;
41952;SDS011;63613;28.200;112.870;2023-08-01T00:51:34;7.68;;;6.97;;
41952;SDS011;63613;28.200;112.870;2023-08-01T00:54:01;7.35;;;6.75;;
41952;SDS011;63613;28.200;112.870;2023-08-01T00:56:28;7.43;;;6.72;;
41952;SDS011;63613;28.200;112.870;2023-08-01T00:58:56;8.30;;;7.50;;
41952;SDS011;63613;28.200;112.870;2023-08-01T01:01:22;8.88;;;8.07;;
41952;SDS011;63613;28.200;112.870;2023-08-01T01:03:49;6.93;;;6.32;;
41952;SDS011;63613;28.200;112.870;2023-08-01T01:06:23;7.28;;;6.68;;
41952;SDS011;63613;28.200;112.870;2023-08-01T01:08:58;8.05;;;7.35;;
41952;SDS011;63613;28.200;112.870;2023-08-01T01:11:25;7.22;;;6.53;;
41952;SDS011;63613;28.200;112.870;2023-08-01T01:13:53;6.57;;;6.07;;
41952;SDS011;63613;28.200;112.870;2023-08-01T01:16:20;7.47;;;6.68;;
41952;SDS011;63613;28.200;112.870;2023-08-01T01:18:47;6.88;;;6.38;;
41952;SDS011;63613;28.200;112.870;2023-08-01T01:21:13;7.38;;;6.78;;
41952;SDS011;63613;28.200;112.870;2023-08-01T01:24:02;6.80;;;6.13;;
41952;SDS011;63613;28.200;112.870;2023-08-01T01:26:33;7.47;;;6.60;;
41952;SDS011;63613;28.200;112.870;2023-08-01T01:29:25;7.13;;;6.43;;
41952;SDS011;63613;28.200;112.870;2023-08-01T01:31:53;7.88;;;7.18;;
41952;SDS011;63613;28.200;112.870;2023-08-01T01:34:21;6.85;;;6.30;;
41952;SDS011;63613;28.200;112.870;2023-08-01T01:36:48;6.70;;;6.15;;
41952;SDS011;63613;28.200;112.870;2023-08-01T01:39:15;6.75;;;6.18;;
41952;SDS011;63613;28.200;112.870;2023-08-01T01:41:42;6.47;;;5.97;;
41952;SDS011;63613;28.200;112.870;2023-08-01T01:44:08;6.80;;;6.30;;
41952;SDS011;63613;28.200;112.870;2023-08-01T01:46:35;6.93;;;6.43;;
41952;SDS011;63613;28.200;112.870;2023-08-01T01:49:02;6.85;;;6.25;;
41952;SDS011;63613;28.200;112.870;2023-08-01T01:51:50;7.18;;;6.57;;
41952;SDS011;63613;28.200;112.870;2023-08-01T01:54:18;6.80;;;6.30;;
41952;SDS011;63613;28.200;112.870;2023-08-01T01:56:45;7.10;;;6.40;;
41952;SDS011;63613;28.200;112.870;2023-08-01T01:59:15;6.88;;;6.35;;
41952;SDS011;63613;28.200;112.870;2023-08-01T02:01:44;6.47;;;5.97;;
41952;SDS011;63613;28.200;112.870;2023-08-01T02:04:11;7.70;;;7.10;;
41952;SDS011;63613;28.200;112.870;2023-08-01T02:06:38;6.70;;;6.10;;
41952;SDS011;63613;28.200;112.870;2023-08-01T02:09:04;7.15;;;6.55;;
41952;SDS011;63613;28.200;112.870;2023-08-01T02:11:32;7.00;;;6.40;;
41952;SDS011;63613;28.200;112.870;2023-08-01T02:13:59;7.57;;;6.88;;
41952;SDS011;63613;28.200;112.870;2023-08-01T02:16:27;7.05;;;6.45;;
41952;SDS011;63613;28.200;112.870;2023-08-01T02:18:55;6.88;;;6.35;;
41952;SDS011;63613;28.200;112.870;2023-08-01T02:21:22;6.10;;;5.68;;
41952;SDS011;63613;28.200;112.870;2023-08-01T02:23:49;6.07;;;5.47;;
41952;SDS011;63613;28.200;112.870;2023-08-01T02:26:15;7.28;;;6.70;;
41952;SDS011;63613;28.200;112.870;2023-08-01T02:28:42;6.60;;;6.03;;
41952;SDS011;63613;28.200;112.870;2023-08-01T02:31:09;6.07;;;5.68;;
41952;SDS011;63613;28.200;112.870;2023-08-01T02:33:36;6.43;;;5.93;;
41952;SDS011;63613;28.200;112.870;2023-08-01T02:36:03;5.60;;;5.10;;
41952;SDS011;63613;28.200;112.870;2023-08-01T02:38:30;7.40;;;6.75;;
41952;SDS011;63613;28.200;112.870;2023-08-01T02:40:57;5.70;;;5.30;;
41952;SDS011;63613;28.200;112.870;2023-08-01T02:43:24;5.95;;;5.20;;
41952;SDS011;63613;28.200;112.870;2023-08-01T02:45:51;6.50;;;6.00;;
41952;SDS011;63613;28.200;112.870;2023-08-01T02:48:19;6.35;;;5.75;;
41952;SDS011;63613;28.200;112.870;2023-08-01T02:50:46;5.95;;;5.45;;
41952;SDS011;63613;28.200;112.870;2023-08-01T02:53:16;6.45;;;5.95;;
41952;SDS011;63613;28.200;112.870;2023-08-01T02:55:43;6.15;;;5.60;;
41952;SDS011;63613;28.200;112.870;2023-08-01T02:58:13;6.57;;;6.07;;
41952;SDS011;63613;28.200;112.870;2023-08-01T03:00:40;6.63;;;6.00;;
41952;SDS011;63613;28.200;112.870;2023-08-01T03:03:07;6.22;;;5.53;;
41952;SDS011;63613;28.200;112.870;2023-08-01T03:05:37;5.95;;;5.45;;
41952;SDS011;63613;28.200;112.870;2023-08-01T03:08:04;5.85;;;5.32;;
41952;SDS011;63613;28.200;112.870;2023-08-01T03:10:32;6.85;;;6.22;;
41952;SDS011;63613;28.200;112.870;2023-08-01T03:12:59;6.00;;;5.50;;
41952;SDS011;63613;28.200;112.870;2023-08-01T03:15:27;6.78;;;6.18;;
41952;SDS011;63613;28.200;112.870;2023-08-01T03:17:53;5.28;;;4.88;;
41952;SDS011;63613;28.200;112.870;2023-08-01T03:20:40;6.28;;;5.65;;
41952;SDS011;63613;28.200;112.870;2023-08-01T03:23:07;6.78;;;6.18;;
41952;SDS011;63613;28.200;112.870;2023-08-01T03:25:34;6.38;;;5.78;;
41952;SDS011;63613;28.200;112.870;2023-08-01T03:28:01;6.88;;;6.28;;
41952;SDS011;63613;28.200;112.870;2023-08-01T03:30:49;6.28;;;5.75;;
41952;SDS011;63613;28.200;112.870;2023-08-01T03:33:21;6.95;;;5.75;;
41952;SDS011;63613;28.200;112.870;2023-08-01T03:36:20;6.80;;;5.90;;
41952;SDS011;63613;28.200;112.870;2023-08-01T03:38:47;6.40;;;5.90;;
41952;SDS011;63613;28.200;112.870;2023-08-01T03:41:14;6.68;;;6.10;;
41952;SDS011;63613;28.200;112.870;2023-08-01T03:44:00;6.25;;;5.75;;
41952;SDS011;63613;28.200;112.870;2023-08-01T03:46:49;6.50;;;5.90;;
41952;SDS011;63613;28.200;112.870;2023-08-01T03:49:16;7.35;;;6.72;;
41952;SDS011;63613;28.200;112.870;2023-08-01T03:51:43;6.93;;;6.32;;
41952;SDS011;63613;28.200;112.870;2023-08-01T03:54:10;7.20;;;6.43;;
41952;SDS011;63613;28.200;112.870;2023-08-01T03:56:37;5.97;;;5.47;;
41952;SDS011;63613;28.200;112.870;2023-08-01T03:59:12;6.55;;;5.85;;
41952;SDS011;63613;28.200;112.870;2023-08-01T04:01:42;5.60;;;5.20;;
41952;SDS011;63613;28.200;112.870;2023-08-01T04:04:09;6.68;;;6.07;;
41952;SDS011;63613;28.200;112.870;2023-08-01T04:06:36;6.80;;;6.05;;
41952;SDS011;63613;28.200;112.870;2023-08-01T04:09:03;6.70;;;5.75;;
41952;SDS011;63613;28.200;112.870;2023-08-01T04:11:32;5.82;;;5.32;;
41952;SDS011;63613;28.200;112.870;2023-08-01T04:14:19;6.22;;;5.63;;
41952;SDS011;63613;28.200;112.870;2023-08-01T04:16:46;7.32;;;6.70;;
41952;SDS011;63613;28.200;112.870;2023-08-01T04:19:15;7.22;;;6.63;;
41952;SDS011;63613;28.200;112.870;2023-08-01T04:21:42;6.45;;;5.85;;
41952;SDS011;63613;28.200;112.870;2023-08-01T04:24:29;6.75;;;5.95;;
41952;SDS011;63613;28.200;112.870;2023-08-01T04:26:57;6.50;;;6.00;;
41952;SDS011;63613;28.200;112.870;2023-08-01T04:29:25;7.25;;;5.70;;
41952;SDS011;63613;28.200;112.870;2023-08-01T04:31:52;7.18;;;6.55;;
41952;SDS011;63613;28.200;112.870;2023-08-01T04:34:19;8.25;;;6.45;;
41952;SDS011;63613;28.200;112.870;2023-08-01T04:36:46;7.07;;;5.90;;
41952;SDS011;63613;28.200;112.870;2023-08-01T04:39:13;6.93;;;6.22;;
41952;SDS011;63613;28.200;112.870;2023-08-01T04:42:00;7.05;;;5.93;;
41952;SDS011;63613;28.200;112.870;2023-08-01T04:44:26;6.63;;;6.03;;
41952;SDS011;63613;28.200;112.870;2023-08-01T04:46:56;6.40;;;5.90;;
41952;SDS011;63613;28.200;112.870;2023-08-01T04:49:23;7.10;;;6.40;;
41952;SDS011;63613;28.200;112.870;2023-08-01T04:52:10;6.38;;;5.88;;
41952;SDS011;63613;28.200;112.870;2023-08-01T04:54:39;6.93;;;6.32;;
41952;SDS011;63613;28.200;112.870;2023-08-01T04:57:06;6.97;;;6.28;;
41952;SDS011;63613;28.200;112.870;2023-08-01T04:59:33;7.85;;;5.80;;
41952;SDS011;63613;28.200;112.870;2023-08-01T05:02:02;6.47;;;5.88;;
41952;SDS011;63613;28.200;112.870;2023-08-01T05:04:29;6.78;;;6.07;;
41952;SDS011;63613;28.200;112.870;2023-08-01T05:06:56;6.45;;;5.85;;
41952;SDS011;63613;28.200;112.870;2023-08-01T05:09:23;6.88;;;6.10;;
41952;SDS011;63613;28.200;112.870;2023-08-01T05:11:50;6.65;;;6.00;;
41952;SDS011;63613;28.200;112.870;2023-08-01T05:14:17;7.65;;;6.65;;
41952;SDS011;63613;28.200;112.870;2023-08-01T05:16:44;9.00;;;6.45;;
41952;SDS011;63613;28.200;112.870;2023-08-01T05:19:31;7.05;;;6.13;;
41952;SDS011;63613;28.200;112.870;2023-08-01T05:21:57;7.22;;;6.20;;
41952;SDS011;63613;28.200;112.870;2023-08-01T05:24:24;7.15;;;6.10;;
41952;SDS011;63613;28.200;112.870;2023-08-01T05:26:51;9.68;;;6.20;;
41952;SDS011;63613;28.200;112.870;2023-08-01T05:29:19;7.70;;;5.75;;
41952;SDS011;63613;28.200;112.870;2023-08-01T05:31:46;7.45;;;5.97;;
41952;SDS011;63613;28.200;112.870;2023-08-01T05:34:12;7.68;;;6.28;;
41952;SDS011;63613;28.200;112.870;2023-08-01T05:36:39;7.97;;;5.72;;
41952;SDS011;63613;28.200;112.870;2023-08-01T05:39:07;8.57;;;5.65;;
41952;SDS011;63613;28.200;112.870;2023-08-01T05:41:35;7.88;;;6.40;;
41952;SDS011;63613;28.200;112.870;2023-08-01T05:44:02;7.00;;;5.90;;
41952;SDS011;63613;28.200;112.870;2023-08-01T05:46:29;7.93;;;6.00;;
41952;SDS011;63613;28.200;112.870;2023-08-01T05:48:56;9.02;;;5.93;;
41952;SDS011;63613;28.200;112.870;2023-08-01T05:51:23;7.55;;;6.85;;
41952;SDS011;63613;28.200;112.870;2023-08-01T05:53:50;6.80;;;6.10;;
41952;SDS011;63613;28.200;112.870;2023-08-01T05:56:17;6.82;;;6.13;;
41952;SDS011;63613;28.200;112.870;2023-08-01T05:58:45;7.13;;;6.38;;
41952;SDS011;63613;28.200;112.870;2023-08-01T06:01:13;7.30;;;6.32;;
41952;SDS011;63613;28.200;112.870;2023-08-01T06:03:40;7.15;;;5.88;;
41952;SDS011;63613;28.200;112.870;2023-08-01T06:06:07;8.20;;;5.70;;
41952;SDS011;63613;28.200;112.870;2023-08-01T06:08:37;6.20;;;5.60;;
41952;SDS011;63613;28.200;112.870;2023-08-01T06:11:04;6.25;;;5.55;;
41952;SDS011;63613;28.200;112.870;2023-08-01T06:13:31;8.30;;;5.72;;
41952;SDS011;63613;28.200;112.870;2023-08-01T06:15:58;6.47;;;5.80;;
41952;SDS011;63613;28.200;112.870;2023-08-01T06:18:25;6.03;;;5.43;;
41952;SDS011;63613;28.200;112.870;2023-08-01T06:20:52;6.65;;;5.85;;
41952;SDS011;63613;28.200;112.870;2023-08-01T06:23:22;6.53;;;5.32;;
41952;SDS011;63613;28.200;112.870;2023-08-01T06:25:51;6.40;;;5.72;;
41952;SDS011;63613;28.200;112.870;2023-08-01T06:28:18;6.90;;;6.20;;
41952;SDS011;63613;28.200;112.870;2023-08-01T06:30:45;6.68;;;5.78;;
41952;SDS011;63613;28.200;112.870;2023-08-01T06:33:13;6.20;;;5.60;;
41952;SDS011;63613;28.200;112.870;2023-08-01T06:36:02;6.93;;;5.88;;
41952;SDS011;63613;28.200;112.870;2023-08-01T06:38:29;6.28;;;5.75;;
41952;SDS011;63613;28.200;112.870;2023-08-01T06:40:59;5.57;;;4.97;;
41952;SDS011;63613;28.200;112.870;2023-08-01T06:43:26;5.93;;;5.30;;
41952;SDS011;63613;28.200;112.870;2023-08-01T06:45:55;6.18;;;5.30;;
41952;SDS011;63613;28.200;112.870;2023-08-01T06:48:22;6.72;;;5.25;;
41952;SDS011;63613;28.200;112.870;2023-08-01T06:50:49;6.13;;;5.18;;
41952;SDS011;63613;28.200;112.870;2023-08-01T06:53:17;6.78;;;6.07;;
41952;SDS011;63613;28.200;112.870;2023-08-01T06:55:46;5.55;;;4.90;;
41952;SDS011;63613;28.200;112.870;2023-08-01T06:58:13;5.60;;;5.07;;
41952;SDS011;63613;28.200;112.870;2023-08-01T07:00:40;6.10;;;5.50;;
41952;SDS011;63613;28.200;112.870;2023-08-01T07:05:40;6.57;;;5.80;;
41952;SDS011;63613;28.200;112.870;2023-08-01T07:08:10;8.55;;;5.45;;
41952;SDS011;63613;28.200;112.870;2023-08-01T07:10:37;6.53;;;5.25;;
41952;SDS011;63613;28.200;112.870;2023-08-01T07:13:04;6.40;;;5.55;;
41952;SDS011;63613;28.200;112.870;2023-08-01T07:15:34;6.47;;;5.63;;
41952;SDS011;63613;28.200;112.870;2023-08-01T07:18:01;6.28;;;5.43;;
41952;SDS011;63613;28.200;112.870;2023-08-01T07:20:28;6.13;;;5.53;;
41952;SDS011;63613;28.200;112.870;2023-08-01T07:22:55;6.28;;;5.60;;
41952;SDS011;63613;28.200;112.870;2023-08-01T07:25:22;6.60;;;6.05;;
41952;SDS011;63613;28.200;112.870;2023-08-01T07:27:50;6.53;;;5.28;;
41952;SDS011;63613;28.200;112.870;2023-08-01T07:30:17;6.68;;;5.70;;
41952;SDS011;63613;28.200;112.870;2023-08-01T07:32:44;7.03;;;5.28;;
41952;SDS011;63613;28.200;112.870;2023-08-01T07:35:12;6.07;;;5.47;;
41952;SDS011;63613;28.200;112.870;2023-08-01T07:37:39;6.82;;;6.00;;
41952;SDS011;63613;28.200;112.870;2023-08-01T07:40:08;6.50;;;5.68;;
41952;SDS011;63613;28.200;112.870;2023-08-01T07:42:38;6.22;;;5.68;;
41952;SDS011;63613;28.200;112.870;2023-08-01T07:45:06;6.43;;;5.90;;
41952;SDS011;63613;28.200;112.870;2023-08-01T07:47:35;6.43;;;5.90;;
41952;SDS011;63613;28.200;112.870;2023-08-01T07:50:02;6.90;;;6.10;;
41952;SDS011;63613;28.200;112.870;2023-08-01T07:52:29;6.43;;;5.82;;
41952;SDS011;63613;28.200;112.870;2023-08-01T07:54:58;6.57;;;5.97;;
41952;SDS011;63613;28.200;112.870;2023-08-01T07:57:25;7.10;;;6.35;;
41952;SDS011;63613;28.200;112.870;2023-08-01T07:59:54;7.00;;;6.28;;
41952;SDS011;63613;28.200;112.870;2023-08-01T08:02:41;7.20;;;6.32;;
41952;SDS011;63613;28.200;112.870;2023-08-01T08:05:12;7.60;;;6.90;;
41952;SDS011;63613;28.200;112.870;2023-08-01T08:07:42;7.00;;;6.40;;
41952;SDS011;63613;28.200;112.870;2023-08-01T08:10:09;8.13;;;7.32;;
41952;SDS011;63613;28.200;112.870;2023-08-01T08:12:36;8.25;;;7.55;;
41952;SDS011;63613;28.200;112.870;2023-08-01T08:15:03;7.43;;;6.72;;
41952;SDS011;63613;28.200;112.870;2023-08-01T08:17:31;8.00;;;7.20;;
41952;SDS011;63613;28.200;112.870;2023-08-01T08:19:57;7.82;;;7.13;;
41952;SDS011;63613;28.200;112.870;2023-08-01T08:22:27;8.18;;;7.05;;
41952;SDS011;63613;28.200;112.870;2023-08-01T08:24:54;8.23;;;7.43;;
41952;SDS011;63613;28.200;112.870;2023-08-01T08:27:21;7.95;;;7.25;;
41952;SDS011;63613;28.200;112.870;2023-08-01T08:29:50;9.32;;;8.05;;
41952;SDS011;63613;28.200;112.870;2023-08-01T08:32:18;9.05;;;7.72;;
41952;SDS011;63613;28.200;112.870;2023-08-01T08:34:47;8.60;;;7.70;;
41952;SDS011;63613;28.200;112.870;2023-08-01T08:37:14;8.10;;;7.30;;
41952;SDS011;63613;28.200;112.870;2023-08-01T08:40:02;8.30;;;7.50;;
41952;SDS011;63613;28.200;112.870;2023-08-01T08:42:33;8.35;;;7.60;;
41952;SDS011;63613;28.200;112.870;2023-08-01T08:45:20;8.25;;;7.45;;
41952;SDS011;63613;28.200;112.870;2023-08-01T08:47:53;7.57;;;6.88;;
41952;SDS011;63613;28.200;112.870;2023-08-01T08:50:23;7.18;;;6.47;;
41952;SDS011;63613;28.200;112.870;2023-08-01T08:52:52;7.97;;;7.30;;
41952;SDS011;63613;28.200;112.870;2023-08-01T08:55:19;7.38;;;6.78;;
41952;SDS011;63613;28.200;112.870;2023-08-01T08:57:51;7.75;;;6.97;;
41952;SDS011;63613;28.200;112.870;2023-08-01T09:00:19;8.52;;;7.65;;
41952;SDS011;63613;28.200;112.870;2023-08-01T09:02:47;9.73;;;7.72;;
41952;SDS011;63613;28.200;112.870;2023-08-01T09:05:14;8.70;;;7.90;;
41952;SDS011;63613;28.200;112.870;2023-08-01T09:07:43;9.20;;;8.20;;
41952;SDS011;63613;28.200;112.870;2023-08-01T09:10:17;9.45;;;8.57;;
41952;SDS011;63613;28.200;112.870;2023-08-01T09:12:44;9.25;;;8.45;;
41952;SDS011;63613;28.200;112.870;2023-08-01T09:15:36;8.93;;;8.13;;
41952;SDS011;63613;28.200;112.870;2023-08-01T09:18:06;10.88;;;8.32;;
41952;SDS011;63613;28.200;112.870;2023-08-01T09:20:48;9.15;;;8.27;;
41952;SDS011;63613;28.200;112.870;2023-08-01T09:23:16;8.50;;;7.70;;
41952;SDS011;63613;28.200;112.870;2023-08-01T09:25:43;8.68;;;7.82;;
41952;SDS011;63613;28.200;112.870;2023-08-01T09:30:51;7.93;;;7.13;;
41952;SDS011;63613;28.200;112.870;2023-08-01T09:33:23;8.77;;;7.82;;
41952;SDS011;63613;28.200;112.870;2023-08-01T09:36:11;8.07;;;7.35;;
41952;SDS011;63613;28.200;112.870;2023-08-01T09:38:51;8.27;;;7.47;;
41952;SDS011;63613;28.200;112.870;2023-08-01T09:41:24;8.32;;;7.55;;
41952;SDS011;63613;28.200;112.870;2023-08-01T09:44:11;7.68;;;6.85;;
41952;SDS011;63613;28.200;112.870;2023-08-01T09:46:43;7.72;;;6.93;;
41952;SDS011;63613;28.200;112.870;2023-08-01T09:49:20;8.10;;;7.32;;
41952;SDS011;63613;28.200;112.870;2023-08-01T09:51:48;8.85;;;7.28;;
41952;SDS011;63613;28.200;112.870;2023-08-01T09:54:16;8.10;;;7.03;;
41952;SDS011;63613;28.200;112.870;2023-08-01T09:56:47;7.75;;;7.00;;
41952;SDS011;63613;28.200;112.870;2023-08-01T09:59:18;9.00;;;7.55;;
41952;SDS011;63613;28.200;112.870;2023-08-01T10:01:46;10.18;;;7.28;;
41952;SDS011;63613;28.200;112.870;2023-08-01T10:04:25;7.95;;;6.80;;
41952;SDS011;63613;28.200;112.870;2023-08-01T10:06:58;9.13;;;6.95;;
41952;SDS011;63613;28.200;112.870;2023-08-01T10:09:29;8.88;;;7.32;;
41952;SDS011;63613;28.200;112.870;2023-08-01T10:11:57;7.70;;;6.90;;
41952;SDS011;63613;28.200;112.870;2023-08-01T10:14:25;11.05;;;8.48;;
41952;SDS011;63613;28.200;112.870;2023-08-01T10:16:52;8.77;;;7.88;;
41952;SDS011;63613;28.200;112.870;2023-08-01T10:19:20;9.57;;;8.02;;
41952;SDS011;63613;28.200;112.870;2023-08-01T10:21:48;10.40;;;7.85;;
41952;SDS011;63613;28.200;112.870;2023-08-01T10:24:15;10.38;;;8.45;;
41952;SDS011;63613;28.200;112.870;2023-08-01T10:26:46;12.15;;;8.45;;
41952;SDS011;63613;28.200;112.870;2023-08-01T10:29:13;13.57;;;9.10;;
41952;SDS011;63613;28.200;112.870;2023-08-01T10:31:50;14.77;;;10.10;;
41952;SDS011;63613;28.200;112.870;2023-08-01T10:34:20;18.15;;;11.52;;
41952;SDS011;63613;28.200;112.870;2023-08-01T10:36:57;20.48;;;12.27;;
41952;SDS011;63613;28.200;112.870;2023-08-01T10:39:26;18.27;;;11.15;;
41952;SDS011;63613;28.200;112.870;2023-08-01T10:42:02;22.92;;;12.00;;
41952;SDS011;63613;28.200;112.870;2023-08-01T10:44:30;18.23;;;12.48;;
41952;SDS011;63613;28.200;112.870;2023-08-01T10:49:56;22.90;;;12.43;;
41952;SDS011;63613;28.200;112.870;2023-08-01T10:52:25;26.20;;;15.15;;
41952;SDS011;63613;28.200;112.870;2023-08-01T10:54:57;26.02;;;13.45;;
41952;SDS011;63613;28.200;112.870;2023-08-01T10:57:31;26.33;;;14.80;;
41952;SDS011;63613;28.200;112.870;2023-08-01T11:00:01;23.17;;;13.45;;
41952;SDS011;63613;28.200;112.870;2023-08-01T11:02:35;21.95;;;13.40;;
41952;SDS011;63613;28.200;112.870;2023-08-01T11:05:08;24.35;;;13.75;;
41952;SDS011;63613;28.200;112.870;2023-08-01T11:07:35;24.58;;;13.93;;
41952;SDS011;63613;28.200;112.870;2023-08-01T11:10:09;26.40;;;14.10;;
41952;SDS011;63613;28.200;112.870;2023-08-01T11:12:40;21.15;;;14.05;;
41952;SDS011;63613;28.200;112.870;2023-08-01T11:15:09;26.02;;;14.07;;
41952;SDS011;63613;28.200;112.870;2023-08-01T11:17:38;23.17;;;14.02;;
41952;SDS011;63613;28.200;112.870;2023-08-01T11:20:06;21.70;;;12.93;;
41952;SDS011;63613;28.200;112.870;2023-08-01T11:22:35;24.52;;;14.52;;
41952;SDS011;63613;28.200;112.870;2023-08-01T11:25:04;21.80;;;13.70;;
41952;SDS011;63613;28.200;112.870;2023-08-01T11:27:33;21.38;;;14.30;;
41952;SDS011;63613;28.200;112.870;2023-08-01T11:30:00;23.45;;;14.20;;
41952;SDS011;63613;28.200;112.870;2023-08-01T11:32:33;24.25;;;14.93;;
41952;SDS011;63613;28.200;112.870;2023-08-01T11:35:05;23.17;;;13.30;;
41952;SDS011;63613;28.200;112.870;2023-08-01T11:37:32;21.90;;;14.80;;
41952;SDS011;63613;28.200;112.870;2023-08-01T11:40:00;21.40;;;13.50;;
41952;SDS011;63613;28.200;112.870;2023-08-01T11:42:31;21.90;;;13.27;;
41952;SDS011;63613;28.200;112.870;2023-08-01T11:45:08;22.33;;;13.43;;
41952;SDS011;63613;28.200;112.870;2023-08-01T11:47:49;21.33;;;13.55;;
41952;SDS011;63613;28.200;112.870;2023-08-01T11:50:25;21.90;;;13.27;;
41952;SDS011;63613;28.200;112.870;2023-08-01T11:52:52;21.85;;;13.07;;
41952;SDS011;63613;28.200;112.870;2023-08-01T11:55:25;21.25;;;12.48;;
41952;SDS011;63613;28.200;112.870;2023-08-01T11:57:53;24.10;;;12.93;;
41952;SDS011;63613;28.200;112.870;2023-08-01T12:00:40;21.13;;;13.05;;
41952;SDS011;63613;28.200;112.870;2023-08-01T12:03:08;18.60;;;11.93;;
41952;SDS011;63613;28.200;112.870;2023-08-01T12:05:40;21.88;;;13.02;;
41952;SDS011;63613;28.200;112.870;2023-08-01T12:08:11;20.40;;;13.63;;
41952;SDS011;63613;28.200;112.870;2023-08-01T12:10:42;19.42;;;12.77;;
41952;SDS011;63613;28.200;112.870;2023-08-01T12:13:19;19.58;;;12.63;;
41952;SDS011;63613;28.200;112.870;2023-08-01T12:16:00;19.35;;;12.55;;
41952;SDS011;63613;28.200;112.870;2023-08-01T12:18:57;21.42;;;13.05;;
41952;SDS011;63613;28.200;112.870;2023-08-01T12:21:53;19.95;;;13.50;;
41952;SDS011;63613;28.200;112.870;2023-08-01T12:24:20;20.92;;;13.30;;
41952;SDS011;63613;28.200;112.870;2023-08-01T12:26:47;23.17;;;13.32;;
41952;SDS011;63613;28.200;112.870;2023-08-01T12:29:13;19.20;;;12.35;;
41952;SDS011;63613;28.200;112.870;2023-08-01T12:31:41;20.05;;;12.38;;
41952;SDS011;63613;28.200;112.870;2023-08-01T12:34:11;18.50;;;12.52;;
41952;SDS011;63613;28.200;112.870;2023-08-01T12:36:38;20.10;;;12.07;;
41952;SDS011;63613;28.200;112.870;2023-08-01T12:39:05;16.20;;;11.45;;
41952;SDS011;63613;28.200;112.870;2023-08-01T12:41:36;16.77;;;11.35;;
41952;SDS011;63613;28.200;112.870;2023-08-01T12:44:04;20.98;;;13.02;;
41952;SDS011;63613;28.200;112.870;2023-08-01T12:46:31;16.15;;;11.90;;
41952;SDS011;63613;28.200;112.870;2023-08-01T12:49:00;18.83;;;11.73;;
41952;SDS011;63613;28.200;112.870;2023-08-01T12:51:30;18.67;;;12.40;;
41952;SDS011;63613;28.200;112.870;2023-08-01T12:53:57;18.23;;;12.50;;
41952;SDS011;63613;28.200;112.870;2023-08-01T12:56:27;15.23;;;11.82;;
41952;SDS011;63613;28.200;112.870;2023-08-01T12:58:55;16.15;;;11.75;;
41952;SDS011;63613;28.200;112.870;2023-08-01T13:01:23;17.38;;;11.68;;
41952;SDS011;63613;28.200;112.870;2023-08-01T13:03:54;18.08;;;11.65;;
41952;SDS011;63613;28.200;112.870;2023-08-01T13:06:23;16.17;;;10.93;;
41952;SDS011;63613;28.200;112.870;2023-08-01T13:08:53;16.05;;;12.20;;
41952;SDS011;63613;28.200;112.870;2023-08-01T13:11:20;16.00;;;11.48;;
41952;SDS011;63613;28.200;112.870;2023-08-01T13:13:47;16.10;;;10.82;;
41952;SDS011;63613;28.200;112.870;2023-08-01T13:16:17;16.17;;;11.52;;
41952;SDS011;63613;28.200;112.870;2023-08-01T13:21:52;13.85;;;10.88;;
41952;SDS011;63613;28.200;112.870;2023-08-01T13:24:21;16.67;;;11.13;;
41952;SDS011;63613;28.200;112.870;2023-08-01T13:26:48;15.40;;;11.05;;
41952;SDS011;63613;28.200;112.870;2023-08-01T13:29:16;13.98;;;9.98;;
41952;SDS011;63613;28.200;112.870;2023-08-01T13:31:45;16.25;;;11.27;;
41952;SDS011;63613;28.200;112.870;2023-08-01T13:34:13;15.63;;;10.85;;
41952;SDS011;63613;28.200;112.870;2023-08-01T13:36:42;15.93;;;11.35;;
41952;SDS011;63613;28.200;112.870;2023-08-01T13:39:09;13.93;;;10.13;;
41952;SDS011;63613;28.200;112.870;2023-08-01T13:41:37;15.18;;;10.40;;
41952;SDS011;63613;28.200;112.870;2023-08-01T13:44:04;14.43;;;9.50;;
41952;SDS011;63613;28.200;112.870;2023-08-01T13:46:37;14.57;;;10.73;;
41952;SDS011;63613;28.200;112.870;2023-08-01T13:49:03;14.35;;;10.68;;
41952;SDS011;63613;28.200;112.870;2023-08-01T13:51:33;14.05;;;9.75;;
41952;SDS011;63613;28.200;112.870;2023-08-01T13:54:05;13.93;;;10.23;;
41952;SDS011;63613;28.200;112.870;2023-08-01T13:56:34;13.85;;;9.85;;
41952;SDS011;63613;28.200;112.870;2023-08-01T13:59:01;14.57;;;10.13;;
41952;SDS011;63613;28.200;112.870;2023-08-01T14:01:28;15.18;;;10.43;;
41952;SDS011;63613;28.200;112.870;2023-08-01T14:03:58;13.20;;;9.70;;
41952;SDS011;63613;28.200;112.870;2023-08-01T14:06:28;13.25;;;9.88;;
41952;SDS011;63613;28.200;112.870;2023-08-01T14:08:55;13.90;;;9.65;;
41952;SDS011;63613;28.200;112.870;2023-08-01T14:11:22;11.65;;;9.23;;
41952;SDS011;63613;28.200;112.870;2023-08-01T14:14:09;12.63;;;9.73;;
41952;SDS011;63613;28.200;112.870;2023-08-01T14:16:37;14.20;;;10.23;;
41952;SDS011;63613;28.200;112.870;2023-08-01T14:19:04;13.02;;;9.57;;
41952;SDS011;63613;28.200;112.870;2023-08-01T14:21:56;13.30;;;9.32;;
41952;SDS011;63613;28.200;112.870;2023-08-01T14:24:23;12.10;;;8.82;;
41952;SDS011;63613;28.200;112.870;2023-08-01T14:26:54;10.60;;;8.85;;
41952;SDS011;63613;28.200;112.870;2023-08-01T14:29:22;11.05;;;8.30;;
41952;SDS011;63613;28.200;112.870;2023-08-01T14:31:50;10.75;;;8.48;;
41952;SDS011;63613;28.200;112.870;2023-08-01T14:34:39;11.40;;;8.80;;
41952;SDS011;63613;28.200;112.870;2023-08-01T14:37:12;10.77;;;8.43;;
41952;SDS011;63613;28.200;112.870;2023-08-01T14:39:39;11.60;;;9.15;;
41952;SDS011;63613;28.200;112.870;2023-08-01T14:42:10;11.15;;;8.25;;
41952;SDS011;63613;28.200;112.870;2023-08-01T14:44:40;11.40;;;9.32;;